Search for airport 
image banner adimage banner adimage banner ad
image banner ad

PA84 - Level Acres Farm

Located in Fordville, United States

ICAO - PA84, IATA -

Data provided by Airmate  

General information

Coordinates: N39°57'14" W76°54'33"
Elevation is 523 feet MSL.
Magnetic variation is -10° East
View others Airports in Pennsylvania

Operational data

Special qualification required
Current time UTC:
Current local time:
Weather at : KTHV - York ( 5 km )
METAR: KTHV 071253Z AUTO 13008KT 10SM FEW070 12/02 A2990 RMK AO2 RAE1157 SLP129 P0000 T01220022
View NOTAMs / SUP AIP / TFR affecting this airport [VIEW]
Communications frequencies: [VIEW]

Runways:

RWY identifierQFULength (ft)Width (ft)SurfaceLDA (ft)
E2300100GRASS
W2300100GRASS

Airport contact information

Address: Fordville United States

Satellite view of PA84